createdAt,value
2022-11-09T00:01:22.541Z,100492.56
2022-11-09T00:04:03.982Z,100450.13
2022-11-09T00:06:32.623Z,100488.41
2022-11-09T00:09:07.155Z,100495.88
2022-11-09T00:11:37.754Z,100493.94
2022-11-09T00:14:07.044Z,100490.72
2022-11-09T00:16:35.151Z,100464.69
2022-11-09T00:19:03.079Z,100495.16
2022-11-09T00:21:30.662Z,100454.78
2022-11-09T00:23:58.463Z,100438.63
2022-11-09T00:26:26.863Z,100492.31
2022-11-09T00:28:54.559Z,100493.94
2022-11-09T00:31:26.956Z,100469.91
2022-11-09T00:33:57.149Z,100464.69
2022-11-09T00:36:26.416Z,100487.19
2022-11-09T00:38:56.846Z,100491.03
2022-11-09T00:41:26.592Z,100464.06
2022-11-09T00:43:56.306Z,100461.81
2022-11-09T00:46:24.876Z,100455.16
2022-11-09T00:48:56.009Z,100467.50
2022-11-09T00:51:23.969Z,100481.06
2022-11-09T00:53:54.751Z,100458.78
2022-11-09T00:56:25.425Z,100476.34
2022-11-09T00:58:56.064Z,100470.78
2022-11-09T01:01:25.418Z,100475.13
2022-11-09T01:03:53.164Z,100461.88
2022-11-09T01:06:24.517Z,100479.78
2022-11-09T01:08:53.715Z,100409.41
2022-11-09T01:11:22.862Z,100430.09
2022-11-09T01:13:55.553Z,100476.41
2022-11-09T01:16:24.613Z,100477.53
2022-11-09T01:18:57.041Z,100481.88
2022-11-09T01:21:28.166Z,100442.00
2022-11-09T01:23:58.568Z,100471.25
2022-11-09T01:26:28.969Z,100470.13
2022-11-09T01:28:56.790Z,100474.50
2022-11-09T01:31:26.086Z,100409.59
2022-11-09T01:33:54.125Z,100462.38
2022-11-09T01:36:23.537Z,100457.53
2022-11-09T01:38:51.689Z,100446.22
2022-11-09T01:41:28.706Z,100463.25
2022-11-09T01:44:23.172Z,100474.69
2022-11-09T01:46:57.278Z,100432.19
2022-11-09T01:49:38.379Z,100471.47
2022-11-09T01:52:12.534Z,100463.56
2022-11-09T01:54:49.364Z,100443.97
2022-11-09T01:57:26.537Z,100446.22
2022-11-09T02:00:02.078Z,100444.19
2022-11-09T02:02:46.287Z,100464.50
2022-11-09T02:05:21.440Z,100438.03
2022-11-09T02:07:52.545Z,100458.72
2022-11-09T02:10:39.225Z,100452.94
2022-11-09T02:13:10.113Z,100415.31
2022-11-09T02:15:45.457Z,100451.81
2022-11-09T02:18:14.788Z,100275.22
2022-11-09T02:20:49.044Z,100451.63
2022-11-09T02:23:17.150Z,100466.22
2022-11-09T02:25:50.398Z,100390.16
2022-11-09T02:28:18.808Z,100378.06
2022-11-09T02:30:52.716Z,100441.63
2022-11-09T02:33:20.829Z,100417.59
2022-11-09T02:35:48.940Z,100437.28
2022-11-09T02:38:16.602Z,100440.00
2022-11-09T02:40:48.333Z,100423.75
2022-11-09T02:43:18.466Z,100427.16
2022-11-09T02:45:46.739Z,100362.25
2022-11-09T02:48:15.661Z,100420.56
2022-11-09T02:50:43.345Z,100353.72
2022-11-09T02:53:11.198Z,100379.56
2022-11-09T02:55:43.033Z,100410.38
2022-11-09T02:58:10.910Z,100413.81
2022-11-09T03:00:40.605Z,100415.41
2022-11-09T03:03:08.559Z,100397.19
2022-11-09T03:05:36.290Z,100361.50
2022-11-09T03:08:04.060Z,100399.44
2022-11-09T03:10:35.541Z,100379.28
2022-11-09T03:13:03.553Z,100410.25
2022-11-09T03:15:31.308Z,100358.56
2022-11-09T03:17:58.941Z,100379.28
2022-11-09T03:20:26.741Z,100398.22
2022-11-09T03:22:58.276Z,100374.81
2022-11-09T03:25:27.328Z,100328.03
2022-11-09T03:28:00.521Z,100403.34
2022-11-09T03:30:28.521Z,100383.81
2022-11-09T03:33:01.849Z,100402.38
2022-11-09T03:35:29.794Z,100375.75
2022-11-09T03:37:57.799Z,100387.53
2022-11-09T03:40:26.958Z,100377.03
2022-11-09T03:42:54.628Z,100367.34
2022-11-09T03:45:22.373Z,100409.84
2022-11-09T03:47:50.326Z,100398.66
2022-11-09T03:50:18.169Z,100422.69
2022-11-09T03:52:46.844Z,100425.38
2022-11-09T03:55:14.987Z,100364.19
2022-11-09T03:57:44.790Z,100425.84
2022-11-09T04:00:14.733Z,100388.41
2022-11-09T04:02:42.336Z,100424.41
2022-11-09T04:05:10.793Z,100384.06
2022-11-09T04:07:38.886Z,100423.13
2022-11-09T04:10:07.727Z,100418.28
2022-11-09T04:12:35.355Z,100364.00
2022-11-09T04:15:03.685Z,100420.50
2022-11-09T04:17:33.371Z,100357.53
2022-11-09T04:20:02.072Z,100388.84
2022-11-09T04:22:29.890Z,100375.13
2022-11-09T04:24:57.497Z,100395.94
2022-11-09T04:27:25.412Z,100369.47
2022-11-09T04:29:53.087Z,100308.09
2022-11-09T04:32:21.024Z,100423.56
2022-11-09T04:34:48.806Z,100422.59
2022-11-09T04:37:16.582Z,100393.50
2022-11-09T04:39:44.360Z,100409.47
2022-11-09T04:42:12.092Z,100400.88
2022-11-09T04:44:40.213Z,100366.47
2022-11-09T04:47:08.170Z,100378.59
2022-11-09T04:49:36.082Z,100400.28
2022-11-09T04:52:05.608Z,100428.03
2022-11-09T04:54:34.025Z,100434.63
2022-11-09T04:57:01.791Z,100411.50
2022-11-09T04:59:29.439Z,100374.06
2022-11-09T05:01:57.060Z,100387.00
2022-11-09T05:04:24.706Z,100288.16
2022-11-09T05:06:52.401Z,100429.44
2022-11-09T05:09:20.242Z,100394.69
2022-11-09T05:11:48.276Z,100391.97
2022-11-09T05:14:15.917Z,100404.25
2022-11-09T05:16:43.609Z,100399.59
2022-11-09T05:19:13.680Z,100418.25
2022-11-09T05:21:41.632Z,100418.66
2022-11-09T05:24:09.401Z,100362.63
2022-11-09T05:26:40.118Z,100425.44
2022-11-09T05:29:10.474Z,100413.00
2022-11-09T05:31:40.410Z,100421.88
2022-11-09T05:34:12.509Z,100374.72
2022-11-09T05:36:40.306Z,100354.06
2022-11-09T05:39:08.511Z,100416.41
2022-11-09T05:41:36.341Z,100332.44
2022-11-09T05:44:05.864Z,100370.13
2022-11-09T05:46:34.379Z,100371.09
2022-11-09T05:49:02.126Z,100413.31
2022-11-09T05:51:29.761Z,100411.28
2022-11-09T05:53:58.541Z,100415.94
2022-11-09T05:56:26.295Z,100420.78
2022-11-09T05:58:54.127Z,100415.13
2022-11-09T06:01:21.736Z,100403.63
2022-11-09T06:03:49.550Z,100382.00
2022-11-09T06:06:18.033Z,100415.31
2022-11-09T06:08:45.830Z,100416.91
2022-11-09T06:11:18.555Z,100418.84
2022-11-09T06:13:50.802Z,100416.91
2022-11-09T06:16:18.700Z,100347.19
2022-11-09T06:18:46.409Z,100365.63
2022-11-09T06:21:14.082Z,100416.81
2022-11-09T06:23:41.857Z,100387.75
2022-11-09T06:26:11.421Z,100390.03
2022-11-09T06:28:40.703Z,100416.00
2022-11-09T06:31:15.744Z,100408.59
2022-11-09T06:33:46.490Z,100415.38
2022-11-09T06:36:16.029Z,100422.75
2022-11-09T06:38:43.735Z,100383.19
2022-11-09T06:41:11.405Z,100391.94
2022-11-09T06:43:39.165Z,100414.06
2022-11-09T06:46:07.315Z,100368.84
2022-11-09T06:48:34.947Z,100388.72
2022-11-09T06:51:04.242Z,100426.34
2022-11-09T06:53:35.464Z,100433.44
2022-11-09T06:56:06.965Z,100435.03
2022-11-09T06:58:35.349Z,100438.91
2022-11-09T07:01:12.127Z,100442.94
2022-11-09T07:03:40.393Z,100440.00
2022-11-09T07:06:09.794Z,100443.88
2022-11-09T07:08:39.450Z,100423.19
2022-11-09T07:11:11.275Z,100405.22
2022-11-09T07:13:40.554Z,100417.06
2022-11-09T07:16:12.992Z,100452.06
2022-11-09T07:18:42.169Z,100427.66
2022-11-09T07:21:14.455Z,100397.91
2022-11-09T07:23:42.914Z,100458.50
2022-11-09T07:26:10.826Z,100453.81
2022-11-09T07:28:38.634Z,100442.63
2022-11-09T07:31:06.549Z,100457.16
2022-11-09T07:33:34.613Z,100467.50
2022-11-09T07:36:04.636Z,100430.94
2022-11-09T07:38:32.271Z,100466.97
2022-11-09T07:41:01.646Z,100470.50
2022-11-09T07:43:30.386Z,100417.22
2022-11-09T07:46:03.926Z,100453.19
2022-11-09T07:48:31.757Z,100445.72
2022-11-09T07:51:01.745Z,100472.19
2022-11-09T07:53:29.799Z,100451.19
2022-11-09T07:55:59.726Z,100488.16
2022-11-09T07:58:28.160Z,100493.31
2022-11-09T08:00:56.345Z,100502.13
2022-11-09T08:03:25.657Z,100501.47
2022-11-09T08:05:53.443Z,100467.34
2022-11-09T08:08:21.195Z,100503.47
2022-11-09T08:10:52.545Z,100483.97
2022-11-09T08:13:22.095Z,100480.13
2022-11-09T08:15:50.099Z,100515.03
2022-11-09T08:18:22.860Z,100515.03
2022-11-09T08:20:51.617Z,100504.97
2022-11-09T08:23:21.890Z,100518.78
2022-11-09T08:25:50.683Z,100524.63
2022-11-09T08:28:19.358Z,100482.63
2022-11-09T08:30:56.921Z,100516.06
2022-11-09T08:33:25.030Z,100529.78
2022-11-09T08:35:53.447Z,100508.16
2022-11-09T08:38:22.592Z,100502.50
2022-11-09T08:40:50.898Z,100507.97
2022-11-09T08:43:18.921Z,100524.50
2022-11-09T08:45:47.619Z,100502.94
2022-11-09T08:48:17.263Z,100511.25
2022-11-09T08:50:45.162Z,100497.69
2022-11-09T08:53:13.165Z,100499.88
2022-11-09T08:55:47.016Z,100527.66
2022-11-09T08:59:59.491Z,100528.50
2022-11-09T09:02:27.310Z,100510.44
2022-11-09T09:04:56.263Z,100491.25
2022-11-09T09:07:24.289Z,100410.19
2022-11-09T09:09:52.545Z,100529.72
2022-11-09T09:12:20.145Z,100513.91
2022-11-09T09:14:48.243Z,100533.16
2022-11-09T09:17:16.091Z,100536.22
2022-11-09T09:19:48.761Z,100499.41
2022-11-09T09:22:18.399Z,100530.59
2022-11-09T09:24:46.200Z,100437.41
2022-11-09T09:27:14.688Z,100537.19
2022-11-09T09:29:42.331Z,100528.69
2022-11-09T09:32:10.015Z,100505.63
2022-11-09T09:34:37.558Z,100498.41
2022-11-09T09:37:05.201Z,100544.38
2022-11-09T09:39:32.902Z,100529.50
2022-11-09T09:42:05.027Z,100528.41
2022-11-09T09:44:37.057Z,100489.78
2022-11-09T09:47:13.479Z,100548.41
2022-11-09T09:49:58.338Z,100548.34
2022-11-09T09:52:50.606Z,100555.75
2022-11-09T09:55:39.285Z,100560.59
2022-11-09T09:58:29.098Z,100565.25
2022-11-09T10:01:06.432Z,100472.81
2022-11-09T10:03:34.416Z,100502.19
2022-11-09T10:06:27.766Z,100526.47
2022-11-09T10:09:14.222Z,100560.41
2022-11-09T10:12:00.939Z,100554.13
2022-11-09T10:14:51.521Z,100558.81
2022-11-09T10:17:33.866Z,100518.59
2022-11-09T10:20:19.793Z,100512.75
2022-11-09T10:22:50.362Z,100558.97
2022-11-09T10:25:43.298Z,100511.31
2022-11-09T10:28:17.106Z,100544.06
2022-11-09T10:30:45.517Z,100564.28
2022-11-09T10:33:21.523Z,100540.84
2022-11-09T10:35:57.484Z,100568.94
2022-11-09T10:38:33.710Z,100571.34
2022-11-09T10:41:28.845Z,100564.28
2022-11-09T10:44:19.898Z,100559.72
2022-11-09T10:47:16.365Z,100562.66
2022-11-09T10:50:22.239Z,100533.38
2022-11-09T10:53:22.201Z,100566.69
2022-11-09T10:56:20.289Z,100484.44
2022-11-09T10:59:48.444Z,100558.16
2022-11-09T11:02:44.046Z,100558.00
2022-11-09T11:05:31.375Z,100555.25
2022-11-09T11:08:29.487Z,100487.22
2022-11-09T11:11:35.153Z,100543.50
2022-11-09T11:14:35.714Z,100538.84
2022-11-09T11:17:24.771Z,100529.31
2022-11-09T11:20:33.303Z,100524.00
2022-11-09T11:23:25.395Z,100527.84
2022-11-09T11:26:25.991Z,100541.59
2022-11-09T11:29:15.528Z,100533.06
2022-11-09T11:32:01.942Z,100522.56
2022-11-09T11:35:04.726Z,100507.22
2022-11-09T11:38:15.176Z,100525.16
2022-11-09T11:41:19.457Z,100521.63
2022-11-09T11:44:41.537Z,100511.50
2022-11-09T11:47:37.535Z,100518.88
2022-11-09T11:50:36.407Z,100517.28
2022-11-09T11:54:10.839Z,100511.81
2022-11-09T11:57:20.154Z,100505.50
2022-11-09T12:00:19.178Z,100508.38
2022-11-09T12:03:44.130Z,100506.94
2022-11-09T12:06:39.640Z,100497.94
2022-11-09T12:09:40.243Z,100493.09
2022-11-09T12:12:47.598Z,100502.28
2022-11-09T12:16:03.642Z,100488.91
2022-11-09T12:18:50.246Z,100493.25
2022-11-09T12:21:45.601Z,100494.56
2022-11-09T12:24:50.014Z,100489.09
2022-11-09T12:27:45.658Z,100500.03
2022-11-09T12:30:53.458Z,100495.84
2022-11-09T12:33:43.880Z,100455.16
2022-11-09T12:36:52.931Z,100504.53
2022-11-09T12:39:45.856Z,100494.22
2022-11-09T12:42:43.448Z,100496.31
2022-11-09T12:45:34.555Z,100490.22
2022-11-09T12:48:30.734Z,100477.66
2022-11-09T12:51:18.263Z,100483.13
2022-11-09T12:54:12.737Z,100445.81
2022-11-09T12:57:04.809Z,100432.56
2022-11-09T12:59:57.108Z,100484.22
2022-11-09T13:02:55.595Z,100432.06
2022-11-09T13:05:43.314Z,100481.47
2022-11-09T13:08:30.574Z,100477.63
2022-11-09T13:11:24.042Z,100458.84
2022-11-09T13:14:22.259Z,100478.41
2022-11-09T13:17:28.724Z,100466.88
2022-11-09T13:20:53.389Z,100478.91
2022-11-09T13:26:46.744Z,100481.63
2022-11-09T13:29:41.831Z,100464.91
2022-11-09T13:32:33.712Z,100455.81
2022-11-09T13:35:42.221Z,100481.78
2022-11-09T13:38:32.497Z,100433.38
2022-11-09T13:41:32.073Z,100465.09
2022-11-09T13:44:38.832Z,100458.78
2022-11-09T13:47:35.305Z,100455.56
2022-11-09T13:50:27.332Z,100462.38
2022-11-09T13:53:53.097Z,100478.97
2022-11-09T13:56:41.281Z,100476.41
2022-11-09T13:59:32.741Z,100485.44
2022-11-09T14:02:24.786Z,100465.78
2022-11-09T14:05:30.228Z,100448.66
2022-11-09T14:08:40.314Z,100362.94
2022-11-09T14:11:36.645Z,100482.38
2022-11-09T14:15:00.234Z,100490.25
2022-11-09T14:18:19.817Z,100458.03
2022-11-09T14:21:21.358Z,100488.22
2022-11-09T14:24:22.474Z,100487.41
2022-11-09T14:27:10.010Z,100495.47
2022-11-09T14:30:02.618Z,100437.03
2022-11-09T14:32:51.494Z,100473.84
2022-11-09T14:35:40.625Z,100484.53
2022-11-09T14:38:47.912Z,100493.09
2022-11-09T14:41:35.238Z,100470.63
2022-11-09T14:44:28.902Z,100477.91
2022-11-09T14:47:18.931Z,100492.28
2022-11-09T14:50:12.977Z,100455.34
2022-11-09T14:53:01.432Z,100469.94
2022-11-09T14:55:47.839Z,100490.47
2022-11-09T14:58:39.750Z,100473.31
2022-11-09T15:01:27.445Z,100492.72
2022-11-09T15:04:21.986Z,100500.75
2022-11-09T15:07:19.238Z,100504.63
2022-11-09T15:10:20.512Z,100496.19
2022-11-09T15:13:07.040Z,100464.75
2022-11-09T15:15:55.120Z,100501.19
2022-11-09T15:18:46.847Z,100508.75
2022-11-09T15:21:34.659Z,100509.72
2022-11-09T15:24:23.188Z,100484.69
2022-11-09T15:27:36.047Z,100507.47
2022-11-09T15:30:36.166Z,100515.69
2022-11-09T15:33:39.895Z,100509.13
2022-11-09T15:36:31.584Z,100507.00
2022-11-09T15:39:22.898Z,100511.34
2022-11-09T15:42:14.101Z,100484.31
2022-11-09T15:45:00.389Z,100517.94
2022-11-09T15:47:56.062Z,100503.13
2022-11-09T15:50:42.465Z,100467.63
2022-11-09T15:53:28.462Z,100471.47
2022-11-09T15:56:23.587Z,100490.38
2022-11-09T15:59:18.436Z,100480.47
2022-11-09T16:02:05.017Z,100475.84
2022-11-09T16:04:51.212Z,100510.38
2022-11-09T16:07:37.250Z,100495.84
2022-11-09T16:10:23.635Z,100521.63
2022-11-09T16:13:10.868Z,100517.44
2022-11-09T16:16:05.725Z,100466.97
2022-11-09T16:18:52.046Z,100506.78
2022-11-09T16:21:38.211Z,100516.75
2022-11-09T16:24:25.060Z,100492.03
2022-11-09T16:27:17.219Z,100495.78
2022-11-09T16:30:17.789Z,100471.88
2022-11-09T16:33:04.453Z,100479.13
2022-11-09T16:35:50.572Z,100489.44
2022-11-09T16:38:42.243Z,100465.38
2022-11-09T16:41:30.837Z,100507.91
2022-11-09T16:44:20.575Z,100522.75
2022-11-09T16:47:12.686Z,100512.03
2022-11-09T16:49:58.993Z,100550.91
2022-11-09T16:52:46.042Z,100450.56
2022-11-09T16:55:32.447Z,100512.31
2022-11-09T16:58:19.220Z,100533.75
2022-11-09T17:01:12.004Z,100552.84
2022-11-09T17:03:59.348Z,100548.28
2022-11-09T17:06:45.484Z,100561.84
2022-11-09T17:09:35.484Z,100527.28
2022-11-09T17:12:21.686Z,100527.91
2022-11-09T17:15:08.311Z,100557.63
2022-11-09T17:17:55.254Z,100563.97
2022-11-09T17:20:46.846Z,100526.25
2022-11-09T17:23:34.043Z,100524.81
2022-11-09T17:26:22.029Z,100581.81
2022-11-09T17:29:07.999Z,100541.22
2022-11-09T17:31:56.674Z,100569.69
2022-11-09T17:34:43.127Z,100587.88
2022-11-09T17:37:29.556Z,100548.59
2022-11-09T17:40:17.375Z,100583.66
2022-11-09T17:43:05.073Z,100599.03
2022-11-09T17:45:51.418Z,100578.81
2022-11-09T17:48:39.097Z,100610.78
2022-11-09T17:51:25.522Z,100586.16
2022-11-09T17:54:12.557Z,100591.19
2022-11-09T17:57:01.103Z,100618.56
2022-11-09T17:59:47.303Z,100594.91
2022-11-09T18:02:35.507Z,100627.56
2022-11-09T18:05:21.897Z,100636.28
2022-11-09T18:08:10.257Z,100618.19
2022-11-09T18:11:01.652Z,100647.38
2022-11-09T18:13:49.160Z,100603.63
2022-11-09T18:16:35.253Z,100648.09
2022-11-09T18:19:21.941Z,100621.56
2022-11-09T18:22:12.488Z,100564.50
2022-11-09T18:24:59.348Z,100646.84
2022-11-09T18:27:45.711Z,100565.19
2022-11-09T18:30:33.005Z,100654.25
2022-11-09T18:33:19.195Z,100657.78
2022-11-09T18:36:09.399Z,100666.31
2022-11-09T18:38:56.084Z,100643.19
2022-11-09T18:41:42.279Z,100673.72
2022-11-09T18:44:28.220Z,100660.09
2022-11-09T18:47:15.239Z,100656.72
2022-11-09T18:50:01.768Z,100637.50
2022-11-09T18:52:47.812Z,100653.66
2022-11-09T18:55:34.708Z,100692.75
2022-11-09T18:58:21.402Z,100689.63
2022-11-09T19:01:08.909Z,100674.38
2022-11-09T19:03:59.261Z,100706.03
2022-11-09T19:06:46.149Z,100705.00
2022-11-09T19:09:35.929Z,100684.47
2022-11-09T19:12:22.468Z,100629.78
2022-11-09T19:15:09.368Z,100701.25
2022-11-09T19:17:55.493Z,100677.50
2022-11-09T19:20:41.794Z,100673.69
2022-11-09T19:23:32.999Z,100703.63
2022-11-09T19:26:23.539Z,100700.72
2022-11-09T19:29:13.620Z,100659.56
2022-11-09T19:31:59.775Z,100695.28
2022-11-09T19:34:46.817Z,100681.41
2022-11-09T19:37:33.440Z,100710.84
2022-11-09T19:40:20.598Z,100717.13
2022-11-09T19:43:07.114Z,100708.53
2022-11-09T19:45:53.191Z,100731.88
2022-11-09T19:48:47.088Z,100743.81
2022-11-09T19:51:34.949Z,100733.19
2022-11-09T19:54:21.231Z,100717.63
2022-11-09T19:57:07.320Z,100730.88
2022-11-09T19:59:53.697Z,100754.56
2022-11-09T20:02:40.080Z,100734.94
2022-11-09T20:05:26.203Z,100745.09
2022-11-09T20:08:12.840Z,100752.88
2022-11-09T20:11:07.289Z,100778.59
2022-11-09T20:13:54.864Z,100792.38
2022-11-09T20:16:42.651Z,100761.59
2022-11-09T20:19:28.823Z,100791.47
2022-11-09T20:22:15.347Z,100761.81
2022-11-09T20:25:01.523Z,100767.38
2022-11-09T20:27:47.786Z,100803.66
2022-11-09T20:30:33.962Z,100769.03
2022-11-09T20:33:20.834Z,100820.97
2022-11-09T20:36:08.103Z,100820.16
2022-11-09T20:38:55.012Z,100827.75
2022-11-09T20:41:42.791Z,100773.97
2022-11-09T20:44:28.851Z,100820.78
2022-11-09T20:47:25.761Z,100838.41
2022-11-09T20:50:23.823Z,100794.16
2022-11-09T20:53:10.232Z,100845.72
2022-11-09T20:55:56.306Z,100854.72
2022-11-09T20:58:42.898Z,100845.50
2022-11-09T21:01:29.322Z,100845.09
2022-11-09T21:04:16.496Z,100870.34
2022-11-09T21:07:02.893Z,100852.19
2022-11-09T21:09:49.328Z,100867.72
2022-11-09T21:12:35.700Z,100863.38
2022-11-09T21:15:21.860Z,100852.34
2022-11-09T21:18:08.627Z,100893.56
2022-11-09T21:20:54.634Z,100833.19
2022-11-09T21:24:00.720Z,100891.72
2022-11-09T21:27:08.537Z,100873.69
2022-11-09T21:29:58.903Z,100890.81
2022-11-09T21:32:45.238Z,100905.50
2022-11-09T21:35:31.373Z,100899.84
2022-11-09T21:38:17.862Z,100920.94
2022-11-09T21:41:30.889Z,100910.59
2022-11-09T21:44:17.369Z,100900.66
2022-11-09T21:47:04.380Z,100885.88
2022-11-09T21:49:50.500Z,100919.72
2022-11-09T21:52:36.627Z,100919.81
2022-11-09T21:55:23.209Z,100899.03
2022-11-09T21:58:09.170Z,100868.69
2022-11-09T22:01:03.786Z,100909.97
2022-11-09T22:03:51.347Z,100921.81
2022-11-09T22:06:39.786Z,100919.72
2022-11-09T22:09:29.533Z,100927.00
2022-11-09T22:12:37.596Z,100858.41
2022-11-09T22:15:42.310Z,100929.84
2022-11-09T22:18:50.135Z,100931.63
2022-11-09T22:21:36.278Z,100919.72
2022-11-09T22:24:22.607Z,100948.25
2022-11-09T22:27:09.300Z,100926.38
2022-11-09T22:29:55.658Z,100911.91
2022-11-09T22:32:43.959Z,100924.34
2022-11-09T22:35:30.561Z,100968.28
2022-11-09T22:38:16.534Z,100926.25
2022-11-09T22:41:04.774Z,100964.75
2022-11-09T22:43:52.642Z,100955.72
2022-11-09T22:46:39.072Z,100945.59
2022-11-09T22:49:25.118Z,100902.56
2022-11-09T22:52:18.368Z,100915.56
2022-11-09T22:55:04.994Z,100932.09
2022-11-09T22:57:55.157Z,100922.03
2022-11-09T23:00:41.819Z,100941.91
2022-11-09T23:03:27.885Z,100898.31
2022-11-09T23:06:19.591Z,100875.59
2022-11-09T23:09:06.558Z,100894.03
2022-11-09T23:11:53.088Z,100926.63
2022-11-09T23:14:58.016Z,100945.91
2022-11-09T23:18:02.822Z,100940.06
2022-11-09T23:20:49.237Z,100948.19
2022-11-09T23:23:35.836Z,100950.19
2022-11-09T23:26:23.918Z,100950.09
2022-11-09T23:29:10.189Z,100972.44
2022-11-09T23:31:57.308Z,100959.44
2022-11-09T23:34:43.393Z,100972.28
2022-11-09T23:37:29.984Z,100979.38
2022-11-09T23:40:16.260Z,100956.13
2022-11-09T23:43:05.115Z,100950.97
2022-11-09T23:45:51.490Z,100942.63
2022-11-09T23:48:39.700Z,100979.19
2022-11-09T23:51:25.738Z,100952.97
2022-11-09T23:54:12.505Z,100963.81
2022-11-09T23:56:58.926Z,100968.75
2022-11-09T23:59:44.965Z,100987.75
